sensor_id;sensor_type;location;lat;lon;timestamp;P1;durP1;ratioP1;P2;durP2;ratioP2
12950;SDS011;6540;50.858;7.232;2022-09-13T00:01:52;5.27;;;4.37;;
12950;SDS011;6540;50.858;7.232;2022-09-13T00:04:17;5.07;;;4.50;;
12950;SDS011;6540;50.858;7.232;2022-09-13T00:06:43;5.57;;;4.60;;
12950;SDS011;6540;50.858;7.232;2022-09-13T00:09:08;4.87;;;4.37;;
12950;SDS011;6540;50.858;7.232;2022-09-13T00:11:34;5.10;;;4.70;;
12950;SDS011;6540;50.858;7.232;2022-09-13T00:13:59;5.80;;;4.37;;
12950;SDS011;6540;50.858;7.232;2022-09-13T00:16:25;6.83;;;4.60;;
12950;SDS011;6540;50.858;7.232;2022-09-13T00:18:52;5.30;;;4.80;;
12950;SDS011;6540;50.858;7.232;2022-09-13T00:21:19;5.50;;;5.00;;
12950;SDS011;6540;50.858;7.232;2022-09-13T00:23:47;4.87;;;4.20;;
12950;SDS011;6540;50.858;7.232;2022-09-13T00:26:15;4.40;;;3.83;;
12950;SDS011;6540;50.858;7.232;2022-09-13T00:28:43;5.90;;;4.47;;
12950;SDS011;6540;50.858;7.232;2022-09-13T00:31:12;5.67;;;4.27;;
12950;SDS011;6540;50.858;7.232;2022-09-13T00:33:37;5.43;;;4.20;;
12950;SDS011;6540;50.858;7.232;2022-09-13T00:36:07;6.80;;;4.63;;
12950;SDS011;6540;50.858;7.232;2022-09-13T00:38:36;6.10;;;4.70;;
12950;SDS011;6540;50.858;7.232;2022-09-13T00:41:07;7.40;;;4.40;;
12950;SDS011;6540;50.858;7.232;2022-09-13T00:43:48;7.53;;;4.83;;
12950;SDS011;6540;50.858;7.232;2022-09-13T00:49:10;6.90;;;5.27;;
12950;SDS011;6540;50.858;7.232;2022-09-13T00:51:41;5.70;;;4.80;;
12950;SDS011;6540;50.858;7.232;2022-09-13T00:54:22;5.30;;;4.80;;
12950;SDS011;6540;50.858;7.232;2022-09-13T00:56:53;7.97;;;4.50;;
12950;SDS011;6540;50.858;7.232;2022-09-13T00:59:24;5.87;;;4.50;;
12950;SDS011;6540;50.858;7.232;2022-09-13T01:01:55;5.77;;;4.53;;
12950;SDS011;6540;50.858;7.232;2022-09-13T01:04:22;5.03;;;4.53;;
12950;SDS011;6540;50.858;7.232;2022-09-13T01:06:52;4.67;;;4.27;;
12950;SDS011;6540;50.858;7.232;2022-09-13T01:09:20;7.67;;;4.97;;
12950;SDS011;6540;50.858;7.232;2022-09-13T01:12:03;6.27;;;4.73;;
12950;SDS011;6540;50.858;7.232;2022-09-13T01:14:34;6.93;;;4.30;;
12950;SDS011;6540;50.858;7.232;2022-09-13T01:17:01;7.50;;;4.80;;
12950;SDS011;6540;50.858;7.232;2022-09-13T01:19:26;4.73;;;4.23;;
12950;SDS011;6540;50.858;7.232;2022-09-13T01:41:35;5.07;;;4.57;;
12950;SDS011;6540;50.858;7.232;2022-09-13T01:44:16;6.73;;;4.80;;
12950;SDS011;6540;50.858;7.232;2022-09-13T01:58:05;5.60;;;5.00;;
12950;SDS011;6540;50.858;7.232;2022-09-13T02:00:33;7.90;;;5.03;;
12950;SDS011;6540;50.858;7.232;2022-09-13T02:05:53;5.67;;;4.83;;
12950;SDS011;6540;50.858;7.232;2022-09-13T02:10:53;5.37;;;4.63;;
12950;SDS011;6540;50.858;7.232;2022-09-13T02:13:26;5.43;;;4.87;;
12950;SDS011;6540;50.858;7.232;2022-09-13T02:15:58;12.63;;;4.80;;
12950;SDS011;6540;50.858;7.232;2022-09-13T02:18:34;6.33;;;5.00;;
12950;SDS011;6540;50.858;7.232;2022-09-13T02:21:11;5.30;;;4.77;;
12950;SDS011;6540;50.858;7.232;2022-09-13T02:23:43;5.77;;;4.97;;
12950;SDS011;6540;50.858;7.232;2022-09-13T02:26:16;5.70;;;4.90;;
12950;SDS011;6540;50.858;7.232;2022-09-13T02:28:47;6.03;;;4.87;;
12950;SDS011;6540;50.858;7.232;2022-09-13T02:32:03;5.63;;;5.07;;
12950;SDS011;6540;50.858;7.232;2022-09-13T02:34:11;6.50;;;5.03;;
12950;SDS011;6540;50.858;7.232;2022-09-13T02:36:42;5.50;;;5.00;;
12950;SDS011;6540;50.858;7.232;2022-09-13T02:39:14;5.97;;;5.07;;
12950;SDS011;6540;50.858;7.232;2022-09-13T02:41:50;8.37;;;5.07;;
12950;SDS011;6540;50.858;7.232;2022-09-13T02:44:25;8.33;;;5.60;;
12950;SDS011;6540;50.858;7.232;2022-09-13T03:00:18;5.83;;;5.10;;
12950;SDS011;6540;50.858;7.232;2022-09-13T03:02:43;6.00;;;4.97;;
12950;SDS011;6540;50.858;7.232;2022-09-13T03:05:10;6.23;;;5.53;;
12950;SDS011;6540;50.858;7.232;2022-09-13T03:07:36;5.00;;;4.50;;
12950;SDS011;6540;50.858;7.232;2022-09-13T03:10:04;7.17;;;4.67;;
12950;SDS011;6540;50.858;7.232;2022-09-13T03:31:09;6.13;;;5.53;;
12950;SDS011;6540;50.858;7.232;2022-09-13T03:36:32;6.33;;;5.30;;
12950;SDS011;6540;50.858;7.232;2022-09-13T03:42:05;5.97;;;4.83;;
12950;SDS011;6540;50.858;7.232;2022-09-13T03:44:37;5.83;;;5.23;;
12950;SDS011;6540;50.858;7.232;2022-09-13T03:47:08;5.97;;;5.37;;
12950;SDS011;6540;50.858;7.232;2022-09-13T03:49:36;6.13;;;4.17;;
12950;SDS011;6540;50.858;7.232;2022-09-13T03:52:03;4.80;;;4.30;;
12950;SDS011;6540;50.858;7.232;2022-09-13T03:54:29;6.80;;;5.30;;
12950;SDS011;6540;50.858;7.232;2022-09-13T03:57:04;5.20;;;4.60;;
12950;SDS011;6540;50.858;7.232;2022-09-13T03:59:36;5.50;;;4.90;;
12950;SDS011;6540;50.858;7.232;2022-09-13T04:02:05;6.40;;;5.27;;
12950;SDS011;6540;50.858;7.232;2022-09-13T04:04:33;5.97;;;5.37;;
12950;SDS011;6540;50.858;7.232;2022-09-13T04:06:59;5.73;;;5.23;;
12950;SDS011;6540;50.858;7.232;2022-09-13T04:09:28;6.73;;;5.37;;
12950;SDS011;6540;50.858;7.232;2022-09-13T04:11:54;5.83;;;5.33;;
12950;SDS011;6540;50.858;7.232;2022-09-13T04:14:20;7.37;;;5.37;;
12950;SDS011;6540;50.858;7.232;2022-09-13T04:16:45;7.17;;;6.03;;
12950;SDS011;6540;50.858;7.232;2022-09-13T04:19:11;6.47;;;5.63;;
12950;SDS011;6540;50.858;7.232;2022-09-13T04:21:36;5.77;;;5.17;;
12950;SDS011;6540;50.858;7.232;2022-09-13T04:24:02;5.70;;;5.17;;
12950;SDS011;6540;50.858;7.232;2022-09-13T04:26:28;6.67;;;4.97;;
12950;SDS011;6540;50.858;7.232;2022-09-13T04:28:53;6.77;;;4.97;;
12950;SDS011;6540;50.858;7.232;2022-09-13T04:31:19;6.17;;;5.57;;
12950;SDS011;6540;50.858;7.232;2022-09-13T04:33:44;6.53;;;5.20;;
12950;SDS011;6540;50.858;7.232;2022-09-13T04:36:09;6.27;;;4.93;;
12950;SDS011;6540;50.858;7.232;2022-09-13T04:38:34;6.00;;;4.87;;
12950;SDS011;6540;50.858;7.232;2022-09-13T04:41:01;5.60;;;5.10;;
12950;SDS011;6540;50.858;7.232;2022-09-13T04:43:27;6.43;;;5.20;;
12950;SDS011;6540;50.858;7.232;2022-09-13T04:45:52;7.13;;;5.23;;
12950;SDS011;6540;50.858;7.232;2022-09-13T04:48:17;6.27;;;5.17;;
12950;SDS011;6540;50.858;7.232;2022-09-13T04:50:43;6.17;;;5.57;;
12950;SDS011;6540;50.858;7.232;2022-09-13T04:53:09;6.10;;;5.50;;
12950;SDS011;6540;50.858;7.232;2022-09-13T04:55:34;5.90;;;5.30;;
12950;SDS011;6540;50.858;7.232;2022-09-13T04:58:00;6.30;;;5.60;;
12950;SDS011;6540;50.858;7.232;2022-09-13T05:00:26;6.87;;;6.13;;
12950;SDS011;6540;50.858;7.232;2022-09-13T05:02:55;6.33;;;5.33;;
12950;SDS011;6540;50.858;7.232;2022-09-13T05:05:21;8.57;;;5.57;;
12950;SDS011;6540;50.858;7.232;2022-09-13T05:07:50;6.87;;;5.40;;
12950;SDS011;6540;50.858;7.232;2022-09-13T05:10:16;9.50;;;5.30;;
12950;SDS011;6540;50.858;7.232;2022-09-13T05:12:42;6.83;;;4.80;;
12950;SDS011;6540;50.858;7.232;2022-09-13T05:15:08;5.43;;;4.53;;
12950;SDS011;6540;50.858;7.232;2022-09-13T05:17:34;5.30;;;4.80;;
12950;SDS011;6540;50.858;7.232;2022-09-13T05:20:00;6.27;;;4.90;;
12950;SDS011;6540;50.858;7.232;2022-09-13T05:22:26;6.03;;;4.70;;
12950;SDS011;6540;50.858;7.232;2022-09-13T05:24:51;5.37;;;4.63;;
12950;SDS011;6540;50.858;7.232;2022-09-13T05:27:16;6.30;;;5.20;;
12950;SDS011;6540;50.858;7.232;2022-09-13T05:29:42;5.90;;;5.30;;
12950;SDS011;6540;50.858;7.232;2022-09-13T05:32:07;5.83;;;5.17;;
12950;SDS011;6540;50.858;7.232;2022-09-13T05:34:33;5.13;;;4.50;;
12950;SDS011;6540;50.858;7.232;2022-09-13T05:36:58;6.53;;;4.63;;
12950;SDS011;6540;50.858;7.232;2022-09-13T05:39:24;7.27;;;4.90;;
12950;SDS011;6540;50.858;7.232;2022-09-13T05:41:49;5.57;;;4.93;;
12950;SDS011;6540;50.858;7.232;2022-09-13T05:44:14;6.43;;;4.83;;
12950;SDS011;6540;50.858;7.232;2022-09-13T05:46:40;5.53;;;4.77;;
12950;SDS011;6540;50.858;7.232;2022-09-13T05:49:07;6.00;;;4.67;;
12950;SDS011;6540;50.858;7.232;2022-09-13T05:51:32;4.87;;;4.37;;
12950;SDS011;6540;50.858;7.232;2022-09-13T05:53:58;4.60;;;4.20;;
12950;SDS011;6540;50.858;7.232;2022-09-13T05:56:25;7.67;;;4.93;;
12950;SDS011;6540;50.858;7.232;2022-09-13T05:58:52;5.20;;;4.40;;
12950;SDS011;6540;50.858;7.232;2022-09-13T06:01:18;5.70;;;5.17;;
12950;SDS011;6540;50.858;7.232;2022-09-13T06:03:46;6.60;;;5.20;;
12950;SDS011;6540;50.858;7.232;2022-09-13T06:06:13;5.13;;;4.63;;
12950;SDS011;6540;50.858;7.232;2022-09-13T06:08:39;7.27;;;5.00;;
12950;SDS011;6540;50.858;7.232;2022-09-13T06:11:05;6.00;;;5.17;;
12950;SDS011;6540;50.858;7.232;2022-09-13T06:13:32;5.83;;;4.80;;
12950;SDS011;6540;50.858;7.232;2022-09-13T06:15:59;6.37;;;4.83;;
12950;SDS011;6540;50.858;7.232;2022-09-13T06:18:26;7.17;;;5.30;;
12950;SDS011;6540;50.858;7.232;2022-09-13T06:21:02;6.43;;;5.67;;
12950;SDS011;6540;50.858;7.232;2022-09-13T06:23:42;5.57;;;5.00;;
12950;SDS011;6540;50.858;7.232;2022-09-13T06:26:10;6.07;;;5.23;;
12950;SDS011;6540;50.858;7.232;2022-09-13T06:28:37;7.50;;;5.23;;
12950;SDS011;6540;50.858;7.232;2022-09-13T06:31:04;6.63;;;4.97;;
12950;SDS011;6540;50.858;7.232;2022-09-13T06:33:31;10.83;;;5.47;;
12950;SDS011;6540;50.858;7.232;2022-09-13T06:36:05;5.73;;;4.63;;
12950;SDS011;6540;50.858;7.232;2022-09-13T06:38:32;8.70;;;5.03;;
12950;SDS011;6540;50.858;7.232;2022-09-13T06:41:16;6.57;;;4.70;;
12950;SDS011;6540;50.858;7.232;2022-09-13T06:43:43;7.60;;;4.90;;
12950;SDS011;6540;50.858;7.232;2022-09-13T06:46:10;6.17;;;5.00;;
12950;SDS011;6540;50.858;7.232;2022-09-13T06:48:38;6.13;;;5.00;;
12950;SDS011;6540;50.858;7.232;2022-09-13T06:51:06;5.00;;;4.50;;
12950;SDS011;6540;50.858;7.232;2022-09-13T06:53:34;6.07;;;4.50;;
12950;SDS011;6540;50.858;7.232;2022-09-13T06:58:32;4.43;;;3.97;;
12950;SDS011;6540;50.858;7.232;2022-09-13T07:03:36;4.40;;;4.00;;
12950;SDS011;6540;50.858;7.232;2022-09-13T07:06:22;4.50;;;4.10;;
12950;SDS011;6540;50.858;7.232;2022-09-13T07:08:51;5.53;;;4.57;;
12950;SDS011;6540;50.858;7.232;2022-09-13T07:11:18;5.97;;;4.50;;
12950;SDS011;6540;50.858;7.232;2022-09-13T07:13:52;5.40;;;4.80;;
12950;SDS011;6540;50.858;7.232;2022-09-13T07:16:21;6.87;;;5.20;;
12950;SDS011;6540;50.858;7.232;2022-09-13T07:18:51;8.40;;;5.53;;
12950;SDS011;6540;50.858;7.232;2022-09-13T07:21:23;6.87;;;5.23;;
12950;SDS011;6540;50.858;7.232;2022-09-13T07:23:53;4.83;;;4.20;;
12950;SDS011;6540;50.858;7.232;2022-09-13T07:26:19;5.53;;;4.97;;
12950;SDS011;6540;50.858;7.232;2022-09-13T07:28:47;8.03;;;5.23;;
12950;SDS011;6540;50.858;7.232;2022-09-13T07:33:41;5.63;;;5.00;;
12950;SDS011;6540;50.858;7.232;2022-09-13T07:36:08;6.70;;;5.20;;
12950;SDS011;6540;50.858;7.232;2022-09-13T07:38:36;6.87;;;4.33;;
12950;SDS011;6540;50.858;7.232;2022-09-13T07:41:11;5.00;;;4.50;;
12950;SDS011;6540;50.858;7.232;2022-09-13T07:43:38;4.83;;;4.17;;
12950;SDS011;6540;50.858;7.232;2022-09-13T07:46:04;5.80;;;4.47;;
12950;SDS011;6540;50.858;7.232;2022-09-13T07:48:32;8.40;;;4.47;;
12950;SDS011;6540;50.858;7.232;2022-09-13T07:51:00;4.30;;;3.77;;
12950;SDS011;6540;50.858;7.232;2022-09-13T07:53:40;5.70;;;4.37;;
12950;SDS011;6540;50.858;7.232;2022-09-13T07:58:44;5.17;;;4.10;;
12950;SDS011;6540;50.858;7.232;2022-09-13T08:01:20;4.67;;;4.23;;
12950;SDS011;6540;50.858;7.232;2022-09-13T08:03:50;4.67;;;4.20;;
12950;SDS011;6540;50.858;7.232;2022-09-13T08:06:24;4.23;;;3.83;;
12950;SDS011;6540;50.858;7.232;2022-09-13T08:08:51;5.23;;;4.27;;
12950;SDS011;6540;50.858;7.232;2022-09-13T08:11:18;4.27;;;3.87;;
12950;SDS011;6540;50.858;7.232;2022-09-13T08:13:49;6.33;;;4.50;;
12950;SDS011;6540;50.858;7.232;2022-09-13T08:16:16;4.77;;;4.17;;
12950;SDS011;6540;50.858;7.232;2022-09-13T08:18:46;4.00;;;3.50;;
12950;SDS011;6540;50.858;7.232;2022-09-13T08:21:13;8.23;;;4.13;;
12950;SDS011;6540;50.858;7.232;2022-09-13T08:23:39;4.87;;;3.93;;
12950;SDS011;6540;50.858;7.232;2022-09-13T08:26:05;5.00;;;4.53;;
12950;SDS011;6540;50.858;7.232;2022-09-13T08:28:32;4.37;;;3.57;;
12950;SDS011;6540;50.858;7.232;2022-09-13T08:31:05;4.70;;;3.80;;
12950;SDS011;6540;50.858;7.232;2022-09-13T08:33:32;5.53;;;3.47;;
12950;SDS011;6540;50.858;7.232;2022-09-13T08:35:58;4.43;;;3.43;;
12950;SDS011;6540;50.858;7.232;2022-09-13T08:38:23;3.63;;;3.33;;
12950;SDS011;6540;50.858;7.232;2022-09-13T08:40:50;3.63;;;3.33;;
12950;SDS011;6540;50.858;7.232;2022-09-13T08:43:48;5.80;;;3.37;;
12950;SDS011;6540;50.858;7.232;2022-09-13T08:48:46;3.27;;;2.97;;
12950;SDS011;6540;50.858;7.232;2022-09-13T08:51:28;5.73;;;3.13;;
12950;SDS011;6540;50.858;7.232;2022-09-13T08:53:59;4.63;;;3.47;;
12950;SDS011;6540;50.858;7.232;2022-09-13T08:57:13;5.57;;;3.53;;
12950;SDS011;6540;50.858;7.232;2022-09-13T09:02:26;3.53;;;3.23;;
12950;SDS011;6540;50.858;7.232;2022-09-13T09:07:47;3.47;;;3.17;;
12950;SDS011;6540;50.858;7.232;2022-09-13T09:10:39;4.27;;;2.97;;
12950;SDS011;6540;50.858;7.232;2022-09-13T09:15:41;2.77;;;2.43;;
12950;SDS011;6540;50.858;7.232;2022-09-13T09:20:43;3.27;;;2.50;;
12950;SDS011;6540;50.858;7.232;2022-09-13T09:23:17;4.40;;;2.60;;
12950;SDS011;6540;50.858;7.232;2022-09-13T09:25:44;2.87;;;2.57;;
12950;SDS011;6540;50.858;7.232;2022-09-13T09:28:14;3.80;;;2.57;;
12950;SDS011;6540;50.858;7.232;2022-09-13T09:31:08;2.90;;;2.70;;
12950;SDS011;6540;50.858;7.232;2022-09-13T09:39:19;3.80;;;2.73;;
12950;SDS011;6540;50.858;7.232;2022-09-13T09:41:44;3.43;;;3.00;;
12950;SDS011;6540;50.858;7.232;2022-09-13T09:44:17;2.70;;;2.50;;
12950;SDS011;6540;50.858;7.232;2022-09-13T09:46:46;2.70;;;2.33;;
12950;SDS011;6540;50.858;7.232;2022-09-13T09:49:18;3.57;;;2.77;;
12950;SDS011;6540;50.858;7.232;2022-09-13T09:52:09;2.00;;;1.90;;
12950;SDS011;6540;50.858;7.232;2022-09-13T09:54:38;2.53;;;2.20;;
12950;SDS011;6540;50.858;7.232;2022-09-13T09:57:05;2.33;;;2.13;;
12950;SDS011;6540;50.858;7.232;2022-09-13T09:59:31;2.53;;;2.23;;
12950;SDS011;6540;50.858;7.232;2022-09-13T10:01:58;3.63;;;2.53;;
12950;SDS011;6540;50.858;7.232;2022-09-13T10:04:25;4.70;;;2.33;;
12950;SDS011;6540;50.858;7.232;2022-09-13T10:07:18;2.47;;;2.27;;
12950;SDS011;6540;50.858;7.232;2022-09-13T10:09:59;8.40;;;4.20;;
12950;SDS011;6540;50.858;7.232;2022-09-13T10:12:30;6.13;;;3.40;;
12950;SDS011;6540;50.858;7.232;2022-09-13T10:17:29;3.53;;;2.43;;
12950;SDS011;6540;50.858;7.232;2022-09-13T10:22:28;3.67;;;2.43;;
12950;SDS011;6540;50.858;7.232;2022-09-13T10:25:10;3.50;;;2.10;;
12950;SDS011;6540;50.858;7.232;2022-09-13T10:27:40;3.73;;;2.50;;
12950;SDS011;6540;50.858;7.232;2022-09-13T10:33:23;2.63;;;2.20;;
12950;SDS011;6540;50.858;7.232;2022-09-13T10:35:53;4.00;;;2.80;;
12950;SDS011;6540;50.858;7.232;2022-09-13T10:38:25;3.97;;;2.53;;
12950;SDS011;6540;50.858;7.232;2022-09-13T10:40:54;3.00;;;2.27;;
12950;SDS011;6540;50.858;7.232;2022-09-13T10:43:21;2.93;;;2.60;;
12950;SDS011;6540;50.858;7.232;2022-09-13T10:45:48;4.23;;;2.70;;
12950;SDS011;6540;50.858;7.232;2022-09-13T10:48:16;3.53;;;2.47;;
12950;SDS011;6540;50.858;7.232;2022-09-13T10:55:58;3.70;;;2.40;;
12950;SDS011;6540;50.858;7.232;2022-09-13T10:58:24;3.63;;;2.10;;
12950;SDS011;6540;50.858;7.232;2022-09-13T11:12:30;3.47;;;2.50;;
12950;SDS011;6540;50.858;7.232;2022-09-13T11:50:52;2.50;;;1.70;;
12950;SDS011;6540;50.858;7.232;2022-09-13T11:56:23;3.33;;;2.13;;
12950;SDS011;6540;50.858;7.232;2022-09-13T12:01:38;2.60;;;2.23;;
12950;SDS011;6540;50.858;7.232;2022-09-13T12:05:18;6.67;;;2.20;;
12950;SDS011;6540;50.858;7.232;2022-09-13T12:10:08;2.37;;;2.17;;
12950;SDS011;6540;50.858;7.232;2022-09-13T12:12:41;2.50;;;2.30;;
12950;SDS011;6540;50.858;7.232;2022-09-13T12:17:47;3.50;;;2.67;;
12950;SDS011;6540;50.858;7.232;2022-09-13T12:22:54;2.97;;;2.17;;
12950;SDS011;6540;50.858;7.232;2022-09-13T12:25:23;4.03;;;2.13;;
12950;SDS011;6540;50.858;7.232;2022-09-13T12:30:24;3.50;;;2.23;;
12950;SDS011;6540;50.858;7.232;2022-09-13T12:32:57;2.50;;;2.30;;
12950;SDS011;6540;50.858;7.232;2022-09-13T12:35:30;2.60;;;2.10;;
12950;SDS011;6540;50.858;7.232;2022-09-13T12:38:08;2.83;;;2.47;;
12950;SDS011;6540;50.858;7.232;2022-09-13T12:40:57;2.20;;;2.00;;
12950;SDS011;6540;50.858;7.232;2022-09-13T12:57:48;4.57;;;3.07;;
12950;SDS011;6540;50.858;7.232;2022-09-13T13:05:20;3.87;;;3.30;;
12950;SDS011;6540;50.858;7.232;2022-09-13T13:07:52;3.47;;;3.03;;
12950;SDS011;6540;50.858;7.232;2022-09-13T13:10:29;6.10;;;3.20;;
12950;SDS011;6540;50.858;7.232;2022-09-13T13:39:40;5.83;;;2.70;;
12950;SDS011;6540;50.858;7.232;2022-09-13T13:49:51;7.27;;;2.80;;
12950;SDS011;6540;50.858;7.232;2022-09-13T13:52:37;2.77;;;2.40;;
12950;SDS011;6540;50.858;7.232;2022-09-13T13:55:27;3.83;;;2.83;;
12950;SDS011;6540;50.858;7.232;2022-09-13T14:00:32;4.90;;;2.40;;
12950;SDS011;6540;50.858;7.232;2022-09-13T14:06:16;9.50;;;2.83;;
12950;SDS011;6540;50.858;7.232;2022-09-13T14:19:54;2.47;;;1.97;;
12950;SDS011;6540;50.858;7.232;2022-09-13T14:22:28;2.90;;;2.10;;
12950;SDS011;6540;50.858;7.232;2022-09-13T14:24:55;3.50;;;2.33;;
12950;SDS011;6540;50.858;7.232;2022-09-13T14:27:23;4.90;;;2.20;;
12950;SDS011;6540;50.858;7.232;2022-09-13T14:29:55;2.50;;;2.20;;
12950;SDS011;6540;50.858;7.232;2022-09-13T14:32:23;2.20;;;2.00;;
12950;SDS011;6540;50.858;7.232;2022-09-13T14:35:02;2.30;;;2.10;;
12950;SDS011;6540;50.858;7.232;2022-09-13T14:40:47;3.43;;;2.10;;
12950;SDS011;6540;50.858;7.232;2022-09-13T14:43:15;2.50;;;2.30;;
12950;SDS011;6540;50.858;7.232;2022-09-13T14:45:44;5.60;;;2.17;;
12950;SDS011;6540;50.858;7.232;2022-09-13T14:48:26;2.63;;;1.90;;
12950;SDS011;6540;50.858;7.232;2022-09-13T14:51:01;2.50;;;2.20;;
12950;SDS011;6540;50.858;7.232;2022-09-13T14:53:31;3.00;;;1.90;;
12950;SDS011;6540;50.858;7.232;2022-09-13T14:56:02;5.73;;;2.23;;
12950;SDS011;6540;50.858;7.232;2022-09-13T14:58:43;6.50;;;2.10;;
12950;SDS011;6540;50.858;7.232;2022-09-13T15:01:13;6.47;;;3.17;;
12950;SDS011;6540;50.858;7.232;2022-09-13T15:03:44;4.23;;;2.20;;
12950;SDS011;6540;50.858;7.232;2022-09-13T15:06:25;2.57;;;2.13;;
12950;SDS011;6540;50.858;7.232;2022-09-13T15:09:00;3.00;;;2.10;;
12950;SDS011;6540;50.858;7.232;2022-09-13T15:19:40;2.33;;;1.80;;
12950;SDS011;6540;50.858;7.232;2022-09-13T15:22:12;2.47;;;1.70;;
12950;SDS011;6540;50.858;7.232;2022-09-13T15:24:56;2.50;;;1.87;;
12950;SDS011;6540;50.858;7.232;2022-09-13T15:29:59;3.93;;;1.90;;
12950;SDS011;6540;50.858;7.232;2022-09-13T15:32:29;4.37;;;1.90;;
12950;SDS011;6540;50.858;7.232;2022-09-13T15:35:21;2.97;;;2.30;;
12950;SDS011;6540;50.858;7.232;2022-09-13T15:37:56;5.03;;;2.27;;
12950;SDS011;6540;50.858;7.232;2022-09-13T15:40:24;4.53;;;2.00;;
12950;SDS011;6540;50.858;7.232;2022-09-13T15:42:52;3.57;;;1.77;;
12950;SDS011;6540;50.858;7.232;2022-09-13T15:45:18;2.73;;;1.80;;
12950;SDS011;6540;50.858;7.232;2022-09-13T15:47:48;2.10;;;1.90;;
12950;SDS011;6540;50.858;7.232;2022-09-13T15:50:25;2.23;;;1.70;;
12950;SDS011;6540;50.858;7.232;2022-09-13T15:52:54;3.20;;;2.20;;
12950;SDS011;6540;50.858;7.232;2022-09-13T15:55:20;3.90;;;2.03;;
12950;SDS011;6540;50.858;7.232;2022-09-13T15:57:46;2.30;;;2.07;;
12950;SDS011;6540;50.858;7.232;2022-09-13T16:00:17;7.47;;;2.50;;
12950;SDS011;6540;50.858;7.232;2022-09-13T16:02:46;5.53;;;3.07;;
12950;SDS011;6540;50.858;7.232;2022-09-13T16:05:11;3.00;;;2.80;;
12950;SDS011;6540;50.858;7.232;2022-09-13T16:07:37;3.07;;;2.63;;
12950;SDS011;6540;50.858;7.232;2022-09-13T16:10:19;4.83;;;2.70;;
12950;SDS011;6540;50.858;7.232;2022-09-13T16:12:46;2.80;;;2.33;;
12950;SDS011;6540;50.858;7.232;2022-09-13T16:15:12;2.67;;;2.03;;
12950;SDS011;6540;50.858;7.232;2022-09-13T16:17:38;3.40;;;2.10;;
12950;SDS011;6540;50.858;7.232;2022-09-13T16:20:04;5.97;;;2.47;;
12950;SDS011;6540;50.858;7.232;2022-09-13T16:22:33;3.33;;;2.27;;
12950;SDS011;6540;50.858;7.232;2022-09-13T16:24:59;2.13;;;1.90;;
12950;SDS011;6540;50.858;7.232;2022-09-13T16:27:24;2.50;;;2.07;;
12950;SDS011;6540;50.858;7.232;2022-09-13T16:29:51;4.10;;;2.13;;
12950;SDS011;6540;50.858;7.232;2022-09-13T16:32:18;3.13;;;2.60;;
12950;SDS011;6540;50.858;7.232;2022-09-13T16:34:43;3.77;;;2.97;;
12950;SDS011;6540;50.858;7.232;2022-09-13T16:37:11;3.63;;;2.30;;
12950;SDS011;6540;50.858;7.232;2022-09-13T16:39:38;4.40;;;2.00;;
12950;SDS011;6540;50.858;7.232;2022-09-13T16:42:04;5.47;;;2.70;;
12950;SDS011;6540;50.858;7.232;2022-09-13T16:44:30;4.40;;;2.60;;
12950;SDS011;6540;50.858;7.232;2022-09-13T16:46:55;4.23;;;2.30;;
12950;SDS011;6540;50.858;7.232;2022-09-13T16:49:21;4.33;;;2.30;;
12950;SDS011;6540;50.858;7.232;2022-09-13T16:51:46;7.17;;;2.30;;
12950;SDS011;6540;50.858;7.232;2022-09-13T16:54:12;3.33;;;2.40;;
12950;SDS011;6540;50.858;7.232;2022-09-13T16:56:37;2.77;;;1.90;;
12950;SDS011;6540;50.858;7.232;2022-09-13T16:59:03;5.17;;;2.40;;
12950;SDS011;6540;50.858;7.232;2022-09-13T17:01:28;3.77;;;2.37;;
12950;SDS011;6540;50.858;7.232;2022-09-13T17:03:54;5.23;;;2.23;;
12950;SDS011;6540;50.858;7.232;2022-09-13T17:06:20;3.57;;;2.27;;
12950;SDS011;6540;50.858;7.232;2022-09-13T17:08:48;3.57;;;2.03;;
12950;SDS011;6540;50.858;7.232;2022-09-13T17:11:17;6.30;;;2.53;;
12950;SDS011;6540;50.858;7.232;2022-09-13T17:13:44;3.57;;;2.20;;
12950;SDS011;6540;50.858;7.232;2022-09-13T17:16:19;5.73;;;2.20;;
12950;SDS011;6540;50.858;7.232;2022-09-13T17:18:50;3.10;;;2.20;;
12950;SDS011;6540;50.858;7.232;2022-09-13T17:21:16;3.30;;;2.50;;
12950;SDS011;6540;50.858;7.232;2022-09-13T17:23:42;3.13;;;2.27;;
12950;SDS011;6540;50.858;7.232;2022-09-13T17:26:08;3.30;;;2.27;;
12950;SDS011;6540;50.858;7.232;2022-09-13T17:28:33;4.10;;;2.60;;
12950;SDS011;6540;50.858;7.232;2022-09-13T17:31:00;3.83;;;2.80;;
12950;SDS011;6540;50.858;7.232;2022-09-13T17:33:26;2.30;;;2.10;;
12950;SDS011;6540;50.858;7.232;2022-09-13T17:36:08;3.63;;;2.50;;
12950;SDS011;6540;50.858;7.232;2022-09-13T17:38:35;3.97;;;2.60;;
12950;SDS011;6540;50.858;7.232;2022-09-13T17:41:03;2.70;;;2.50;;
12950;SDS011;6540;50.858;7.232;2022-09-13T17:43:30;2.67;;;2.47;;
12950;SDS011;6540;50.858;7.232;2022-09-13T17:46:07;6.43;;;2.73;;
12950;SDS011;6540;50.858;7.232;2022-09-13T17:48:35;4.50;;;2.83;;
12950;SDS011;6540;50.858;7.232;2022-09-13T17:51:05;2.50;;;2.30;;
12950;SDS011;6540;50.858;7.232;2022-09-13T17:53:41;3.10;;;2.90;;
12950;SDS011;6540;50.858;7.232;2022-09-13T17:56:08;3.57;;;2.73;;
12950;SDS011;6540;50.858;7.232;2022-09-13T17:58:34;3.40;;;3.10;;
12950;SDS011;6540;50.858;7.232;2022-09-13T18:01:03;4.33;;;2.70;;
12950;SDS011;6540;50.858;7.232;2022-09-13T18:03:30;4.73;;;2.70;;
12950;SDS011;6540;50.858;7.232;2022-09-13T18:05:57;2.93;;;2.63;;
12950;SDS011;6540;50.858;7.232;2022-09-13T18:08:24;3.23;;;2.77;;
12950;SDS011;6540;50.858;7.232;2022-09-13T18:10:50;3.47;;;3.17;;
12950;SDS011;6540;50.858;7.232;2022-09-13T18:13:16;3.10;;;2.80;;
12950;SDS011;6540;50.858;7.232;2022-09-13T18:15:42;5.50;;;2.97;;
12950;SDS011;6540;50.858;7.232;2022-09-13T18:18:08;5.50;;;3.13;;
12950;SDS011;6540;50.858;7.232;2022-09-13T18:20:34;4.73;;;3.00;;
12950;SDS011;6540;50.858;7.232;2022-09-13T18:22:59;5.00;;;3.00;;
12950;SDS011;6540;50.858;7.232;2022-09-13T18:25:24;4.53;;;3.73;;
12950;SDS011;6540;50.858;7.232;2022-09-13T18:27:50;4.17;;;2.60;;
12950;SDS011;6540;50.858;7.232;2022-09-13T18:30:15;6.10;;;3.30;;
12950;SDS011;6540;50.858;7.232;2022-09-13T18:32:41;3.80;;;2.80;;
12950;SDS011;6540;50.858;7.232;2022-09-13T18:35:06;4.87;;;3.03;;
12950;SDS011;6540;50.858;7.232;2022-09-13T18:37:32;6.43;;;3.60;;
12950;SDS011;6540;50.858;7.232;2022-09-13T18:39:58;5.73;;;3.57;;
12950;SDS011;6540;50.858;7.232;2022-09-13T18:42:24;3.70;;;3.17;;
12950;SDS011;6540;50.858;7.232;2022-09-13T18:44:50;3.67;;;3.17;;
12950;SDS011;6540;50.858;7.232;2022-09-13T18:47:19;5.83;;;3.47;;
12950;SDS011;6540;50.858;7.232;2022-09-13T18:49:51;5.10;;;3.43;;
12950;SDS011;6540;50.858;7.232;2022-09-13T18:52:16;6.37;;;3.40;;
12950;SDS011;6540;50.858;7.232;2022-09-13T18:54:41;4.53;;;3.33;;
12950;SDS011;6540;50.858;7.232;2022-09-13T18:57:07;7.43;;;3.27;;
12950;SDS011;6540;50.858;7.232;2022-09-13T18:59:32;3.70;;;3.30;;
12950;SDS011;6540;50.858;7.232;2022-09-13T19:01:58;4.53;;;2.87;;
12950;SDS011;6540;50.858;7.232;2022-09-13T19:04:23;5.00;;;4.13;;
12950;SDS011;6540;50.858;7.232;2022-09-13T19:06:50;6.30;;;4.70;;
12950;SDS011;6540;50.858;7.232;2022-09-13T19:09:17;4.07;;;3.50;;
12950;SDS011;6540;50.858;7.232;2022-09-13T19:11:45;7.93;;;3.93;;
12950;SDS011;6540;50.858;7.232;2022-09-13T19:14:19;4.77;;;4.23;;
12950;SDS011;6540;50.858;7.232;2022-09-13T19:16:46;5.37;;;3.67;;
12950;SDS011;6540;50.858;7.232;2022-09-13T19:19:12;5.63;;;3.57;;
12950;SDS011;6540;50.858;7.232;2022-09-13T19:21:38;4.87;;;3.53;;
12950;SDS011;6540;50.858;7.232;2022-09-13T19:24:04;5.30;;;3.60;;
12950;SDS011;6540;50.858;7.232;2022-09-13T19:26:34;3.70;;;3.40;;
12950;SDS011;6540;50.858;7.232;2022-09-13T19:29:02;5.40;;;4.03;;
12950;SDS011;6540;50.858;7.232;2022-09-13T19:31:30;5.30;;;2.87;;
12950;SDS011;6540;50.858;7.232;2022-09-13T19:33:58;4.67;;;3.60;;
12950;SDS011;6540;50.858;7.232;2022-09-13T19:36:26;4.50;;;3.60;;
12950;SDS011;6540;50.858;7.232;2022-09-13T19:38:54;5.23;;;4.20;;
12950;SDS011;6540;50.858;7.232;2022-09-13T19:41:21;7.53;;;4.90;;
12950;SDS011;6540;50.858;7.232;2022-09-13T19:43:49;11.87;;;6.70;;